Weather Models
Both GFS & NAM
00z 06z 12z 18z
24hr Precip
00z 06z 12z 18z
36hr Simulated radar
00z 06z 12z 18z
SKEWT Soundings
00z 12z
Current Conditions (Updated 9:45pm on 3/24/17)
Temperature
 53°
-0.69
57°  
40°  
0
10
20
30
40
50
60
70
80
90
100
Dew Point
33°
35°  
25°  
-20
-10
0
10
20
30
40
50
60
70
80
Wind Chill
50°
57°  
32°  
-20
-10
0
10
20
30
40
50
60
70
80
Wind Chill
Humidity
47%
55% 
40% 
0
10
20
30
40
50
60
70
80
90
100
Barometer
30.16
   Steady
30.49  
30.16  
28.00
28.30
28.60
28.90
29.20
29.50
29.80
30.10
30.40
30.70
31.00
Temperature
Dew Point
Humidity
Pressure
Wind
7mph
SSE
Daily Rain
.00
.05
.10
.15
.20
.25
.30
.35
.40
.45
.50
Rain Today
 0.00" 
Month Rain
0.00
0.20
0.40
0.60
0.80
1.00
1.20
1.40
1.60
1.80
2.00
Month Rain
 0.00" 
Year Rain
0.00
1.00
2.00
3.00
4.00
5.00
6.00
7.00
8.00
9.00
10.00
Year Rain
 5.78" 
Sun & Moon Data
Sunrise 6:55am
Sunset 7:15pm
Moonrise 4:56am
Moonset 3:41pm
Moon % 13%
Other Rain Data
Past Hour 0.00 Past 24 Hours 0.00
Past 3 Hours 0.00 Past 7 Days 0.30
Past 6 Hours 0.00
Cloud Height
4908


Current Front Map
Current Satellite map
7 Day Forecast
NWS Forecast for Philadelphia PA
National Weather Service Forecast for: Philadelphia PA
Issued by: National Weather Service Philadelphia, PA
Updated: 7:55 pm EDT Mar 24, 2017

Philadelphia
 
Tonight

Tonight: Mostly cloudy, with a low around 48. Southwest wind around 8 mph.
Mostly Cloudy

Saturday

Saturday: A chance of showers, mainly after 3pm.  Mostly cloudy, with a high near 69. Southwest wind 6 to 9 mph.  Chance of precipitation is 30%. New precipitation amounts of less than a tenth of an inch possible.
Chance
Showers
Saturday
Night
Saturday Night: A chance of showers.  Cloudy, with a low around 45. East wind 10 to 13 mph.  Chance of precipitation is 40%. New precipitation amounts of less than a tenth of an inch possible.
Chance
Showers
Sunday

Sunday: A chance of showers.  Cloudy, with a high near 49. East wind around 10 mph.  Chance of precipitation is 40%. New precipitation amounts of less than a tenth of an inch possible.
Chance
Showers
Sunday
Night
Sunday Night: Showers likely.  Patchy fog after 4am.  Otherwise, cloudy, with a low around 47. East wind 7 to 10 mph.  Chance of precipitation is 60%. New precipitation amounts between a tenth and quarter of an inch possible.
Showers
Likely and
Patchy Fog
Monday

Monday: Showers likely.  Patchy fog before 10am.  Otherwise, cloudy, with a high near 66. Chance of precipitation is 60%. New precipitation amounts between a tenth and quarter of an inch possible.
Showers
Likely and
Patchy Fog
Monday
Night
Monday Night: A chance of showers.  Patchy fog before midnight, then patchy fog after 1am.  Otherwise, mostly cloudy, with a low around 50. Chance of precipitation is 40%.
Chance
Showers and
Patchy Fog
Tuesday

Tuesday: A chance of showers.  Patchy fog before 9am.  Otherwise, mostly cloudy, with a high near 66. Chance of precipitation is 50%.
Chance
Showers and
Patchy Fog
Tuesday
Night
Tuesday Night: A chance of showers.  Mostly cloudy, with a low around 47. Chance of precipitation is 50%.
Chance
Showers
Lo 48 °F Hi 69 °F Lo 45 °F Hi 49 °F Lo 47 °F Hi 66 °F Lo 50 °F Hi 66 °F Lo 47 °F

 

Tonight
 
Mostly cloudy, with a low around 48. Southwest wind around 8 mph.
Saturday
 
A chance of showers, mainly after 3pm. Mostly cloudy, with a high near 69. Southwest wind 6 to 9 mph. Chance of precipitation is 30%. New precipitation amounts of less than a tenth of an inch possible.
Saturday Night
 
A chance of showers. Cloudy, with a low around 45. East wind 10 to 13 mph. Chance of precipitation is 40%. New precipitation amounts of less than a tenth of an inch possible.
Sunday
 
A chance of showers. Cloudy, with a high near 49. East wind around 10 mph. Chance of precipitation is 40%. New precipitation amounts of less than a tenth of an inch possible.
Sunday Night
 
Showers likely. Patchy fog after 4am. Otherwise, cloudy, with a low around 47. East wind 7 to 10 mph. Chance of precipitation is 60%. New precipitation amounts between a tenth and quarter of an inch possible.
Monday
 
Showers likely. Patchy fog before 10am. Otherwise, cloudy, with a high near 66. Chance of precipitation is 60%. New precipitation amounts between a tenth and quarter of an inch possible.
Monday Night
 
A chance of showers. Patchy fog before midnight, then patchy fog after 1am. Otherwise, mostly cloudy, with a low around 50. Chance of precipitation is 40%.
Tuesday
 
A chance of showers. Patchy fog before 9am. Otherwise, mostly cloudy, with a high near 66. Chance of precipitation is 50%.
Tuesday Night
 
A chance of showers. Mostly cloudy, with a low around 47. Chance of precipitation is 50%.
Wednesday
 
Partly sunny, with a high near 62.
Wednesday Night
 
Mostly clear, with a low around 40.
Thursday
 
Mostly sunny, with a high near 57.
Thursday Night
 
Mostly cloudy, with a low around 39.
Friday
 
A chance of showers. Mostly cloudy, with a high near 55. Chance of precipitation is 50%.

 

Forecast from NOAA-NWS for Philadelphia PA.

Area Weather Current Conditions
Nearby METAR Reports

KPHL - Philadelphia, Pennsylvania
Updated: Fri, 24-Mar-2017 8:54pm EDT
Partly Cloudy
Partly Cloudy
 Wind from SW
Wind: SW 7 mph , 11 km/h
Temperature: 54°F , 12°C
Dew Point: 34°F , 1°C
Humidity: 47%
Barometer: 30.16 inHg , 1021.3 hPa
Clouds: Partly Cloudy
Visibility: 10 miles , 16 km
Cloud details: Partly Cloudy 25000 ft
2017/03/25 00:54 KPHL 250054Z 22006KT 10SM SCT250 12/01 A3016 RMK AO2 SLP211 T01170011
KMPO - Mt. Pocono, Pennsylvania
Updated: Fri, 24-Mar-2017 8:53pm EDT
Clear
Clear
 Wind from W
Wind: W 9 mph , 15 km/h
Temperature: 43°F , 6°C
Wind Chill: 38°F , 3°C
Dew Point: 36°F , 2°C
Humidity: 76%
Barometer: 30.11 inHg , 1019.6 hPa
Clouds: Clear
Visibility: 10 miles , 16 km
2017/03/25 00:53 KMPO 250053Z AUTO 26008KT 10SM CLR 06/02 A3011 RMK AO2 SLP212 T00560022
 
KACY - Atlantic City, New Jersey
Updated: Fri, 24-Mar-2017 8:54pm EDT
Clear
Clear
 Wind from SSW
Wind: SSW 8 mph , 13 km/h
Temperature: 52°F , 11°C
Dew Point: 39°F , 4°C
Humidity: 62%
Barometer: 30.17 inHg , 1021.7 hPa
Clouds: Clear
Visibility: 10 miles , 16 km
2017/03/25 00:54 KACY 250054Z 20007KT 10SM CLR 11/04 A3017 RMK AO2 SLP217 T01060039 $
KMIV - Millville, New Jersey
Updated: Fri, 24-Mar-2017 8:54pm EDT
Clear
Clear
 Wind from varies
Wind: varies 3 mph , 6 km/h
Temperature: 50°F , 10°C
Dew Point: 39°F , 4°C
Humidity: 67%
Barometer: 30.17 inHg , 1021.7 hPa
Clouds: Clear
Visibility: 10 miles , 16 km
2017/03/25 00:54 KMIV 250054Z AUTO VRB03KT 10SM CLR 10/04 A3017 RMK AO2 SLP216 T01000039
 
KWWD - Wildwood, New Jersey
Updated: Fri, 24-Mar-2017 8:56pm EDT
Clear
Clear
 Wind from SSW
Wind: SSW 9 mph , 15 km/h
Temperature: 50°F , 10°C
Wind Chill: 46°F , 8°C
Dew Point: 43°F , 6°C
Humidity: 76%
Barometer: 30.20 inHg , 1022.7 hPa
Clouds: Clear
Visibility: 10 miles , 16 km
2017/03/25 00:56 KWWD 250056Z AUTO 20008KT 10SM CLR 10/06 A3020 RMK AO2 SLP228 T01000056 $
KDOV - Dover Afb, Delaware
Updated: Fri, 24-Mar-2017 8:58pm EDT
Mostly Cloudy
Mostly Cloudy
 Wind from SSW
Wind: SSW 12 mph , 19 km/h
Temperature: 55°F , 13°C
Dew Point: 41°F , 5°C
Humidity: 59%
Barometer: 30.17 inHg , 1021.7 hPa
Clouds: Mostly Cloudy
Visibility: 10 miles , 16 km
Cloud details: Mostly Cloudy 10000 ft
2017/03/25 00:58 KDOV 250058Z 20010KT 10SM BKN100 13/05 A3017 RMK AO2A SLP220 T01310053 $
Severe Weather Map
Recent Forum Post
[Philadelphia] Request for Philly Snow Data by JC February 14, 2017, 08:42:21 PM
[Philadelphia] 2016 -2017 Winter snow forecast by JC December 01, 2016, 04:56:31 AM
[Philadelphia] Winter forecast 2016-2017 by xyonist November 30, 2016, 01:14:08 PM
[Philadelphia] 102.7 last Saturday by JC August 20, 2016, 03:26:22 AM
[Philadelphia] 2015 -2016 Winter snow forecast by JC April 19, 2016, 09:42:40 AM
[Philadelphia] Latest Models on Weekend Storm (Photos) by JC January 23, 2016, 12:01:03 PM
[Philadelphia] Possible large snow storm for end of week ? by JC January 21, 2016, 09:17:47 AM
[Philadelphia] El Nino! by vicente6 September 16, 2015, 01:57:08 AM